createdAt,value
2023-02-05T00:01:30.911Z,-3.68
2023-02-05T00:03:57.556Z,-3.75
2023-02-05T00:06:24.454Z,-3.80
2023-02-05T00:08:51.149Z,-3.66
2023-02-05T00:11:17.910Z,-4.22
2023-02-05T00:13:44.984Z,-3.77
2023-02-05T00:16:15.561Z,-3.96
2023-02-05T00:18:42.750Z,-3.80
2023-02-05T00:21:10.623Z,-4.06
2023-02-05T00:23:37.420Z,-4.34
2023-02-05T00:26:05.317Z,-4.88
2023-02-05T00:28:33.499Z,-3.84
2023-02-05T00:31:00.495Z,-3.96
2023-02-05T00:33:27.694Z,-4.03
2023-02-05T00:35:54.637Z,-3.86
2023-02-05T00:38:21.420Z,-3.79
2023-02-05T00:40:48.080Z,-3.95
2023-02-05T00:43:14.671Z,-4.02
2023-02-05T00:45:41.355Z,-4.07
2023-02-05T00:48:08.154Z,-3.97
2023-02-05T00:50:35.171Z,-3.92
2023-02-05T00:53:02.079Z,-4.36
2023-02-05T00:55:28.719Z,-4.48
2023-02-05T00:57:55.602Z,-4.13
2023-02-05T01:00:22.841Z,-4.18
2023-02-05T01:02:49.567Z,-4.66
2023-02-05T01:05:16.412Z,-4.54
2023-02-05T01:07:43.128Z,-5.02
2023-02-05T01:10:10.097Z,-4.86
2023-02-05T01:12:36.931Z,-4.18
2023-02-05T01:15:08.801Z,-4.13
2023-02-05T01:17:35.608Z,-5.05
2023-02-05T01:20:02.210Z,-4.57
2023-02-05T01:22:28.929Z,-4.07
2023-02-05T01:24:55.542Z,-4.25
2023-02-05T01:27:22.234Z,-4.12
2023-02-05T01:29:48.773Z,-4.40
2023-02-05T01:32:15.437Z,-4.31
2023-02-05T01:34:42.095Z,-4.18
2023-02-05T01:37:08.752Z,-4.08
2023-02-05T01:39:37.362Z,-4.26
2023-02-05T01:42:25.524Z,-4.19
2023-02-05T01:45:23.237Z,-4.18
2023-02-05T01:47:54.963Z,-4.12
2023-02-05T01:50:26.456Z,-4.10
2023-02-05T01:52:53.979Z,-4.09
2023-02-05T01:55:21.503Z,-4.13
2023-02-05T01:57:50.270Z,-4.12
2023-02-05T02:00:16.972Z,-4.20
2023-02-05T02:02:44.285Z,-4.21
2023-02-05T02:05:14.020Z,-4.35
2023-02-05T02:07:41.486Z,-4.29
2023-02-05T02:10:10.853Z,-4.26
2023-02-05T02:12:41.039Z,-4.28
2023-02-05T02:15:13.108Z,-4.34
2023-02-05T02:17:42.328Z,-4.36
2023-02-05T02:20:21.626Z,-4.30
2023-02-05T02:23:14.502Z,-4.23
2023-02-05T02:25:44.939Z,-4.34
2023-02-05T02:28:30.049Z,-4.48
2023-02-05T02:31:29.402Z,-4.53
2023-02-05T02:34:13.280Z,-4.61
2023-02-05T02:37:22.999Z,-4.57
2023-02-05T02:40:06.148Z,-4.67
2023-02-05T02:42:39.788Z,-4.66
2023-02-05T02:45:10.022Z,-4.68
2023-02-05T02:47:42.352Z,-4.53
2023-02-05T02:50:23.253Z,-4.74
2023-02-05T02:52:55.615Z,-4.77
2023-02-05T02:55:23.342Z,-4.76
2023-02-05T02:57:52.597Z,-4.62
2023-02-05T03:00:26.445Z,-4.82
2023-02-05T03:03:00.114Z,-4.91
2023-02-05T03:05:28.769Z,-4.83
2023-02-05T03:08:14.790Z,-4.87
2023-02-05T03:10:47.816Z,-4.83
2023-02-05T03:13:14.815Z,-4.93
2023-02-05T03:15:43.951Z,-4.78
2023-02-05T03:18:11.631Z,-4.84
2023-02-05T03:20:52.853Z,-5.02
2023-02-05T03:23:19.540Z,-5.02
2023-02-05T03:25:46.168Z,-5.10
2023-02-05T03:28:13.682Z,-5.07
2023-02-05T03:31:13.705Z,-5.20
2023-02-05T03:33:55.792Z,-5.14
2023-02-05T03:36:36.876Z,-5.10
2023-02-05T03:39:27.005Z,-5.15
2023-02-05T03:42:29.909Z,-5.13
2023-02-05T03:45:16.884Z,-5.12
2023-02-05T03:47:49.609Z,-5.12
2023-02-05T03:50:30.373Z,-5.34
2023-02-05T03:53:49.233Z,-5.25
2023-02-05T03:56:25.789Z,-5.29
2023-02-05T03:58:56.627Z,-5.14
2023-02-05T04:01:24.896Z,-5.25
2023-02-05T04:03:51.791Z,-5.15
2023-02-05T04:06:18.404Z,-5.26
2023-02-05T04:08:45.125Z,-5.13
2023-02-05T04:11:12.192Z,-5.16
2023-02-05T04:13:38.768Z,-5.21
2023-02-05T04:16:05.807Z,-5.19
2023-02-05T04:18:32.505Z,-5.17
2023-02-05T04:21:00.067Z,-5.28
2023-02-05T04:23:26.666Z,-5.29
2023-02-05T04:25:55.210Z,-5.21
2023-02-05T04:28:21.900Z,-5.47
2023-02-05T04:30:48.551Z,-5.29
2023-02-05T04:33:15.356Z,-5.35
2023-02-05T04:35:41.979Z,-5.29
2023-02-05T04:38:08.686Z,-5.36
2023-02-05T04:40:35.274Z,-5.38
2023-02-05T04:43:01.968Z,-5.52
2023-02-05T04:45:31.195Z,-5.33
2023-02-05T04:47:59.560Z,-5.42
2023-02-05T04:50:27.474Z,-5.31
2023-02-05T04:52:54.389Z,-5.36
2023-02-05T04:55:21.233Z,-5.28
2023-02-05T04:57:47.897Z,-5.43
2023-02-05T05:00:15.296Z,-5.35
2023-02-05T05:02:41.897Z,-5.52
2023-02-05T05:05:08.885Z,-5.54
2023-02-05T05:07:35.596Z,-5.49
2023-02-05T05:10:02.190Z,-5.56
2023-02-05T05:12:28.850Z,-5.57
2023-02-05T05:14:56.030Z,-5.60
2023-02-05T05:17:22.603Z,-5.54
2023-02-05T05:19:49.197Z,-5.42
2023-02-05T05:22:15.888Z,-5.40
2023-02-05T05:24:42.481Z,-5.59
2023-02-05T05:27:09.030Z,-5.57
2023-02-05T05:29:35.770Z,-5.59
2023-02-05T05:32:02.531Z,-5.56
2023-02-05T05:34:29.148Z,-5.58
2023-02-05T05:36:55.762Z,-5.48
2023-02-05T05:39:41.093Z,-5.62
2023-02-05T05:42:28.568Z,-5.66
2023-02-05T05:44:55.316Z,-5.63
2023-02-05T05:47:22.125Z,-5.57
2023-02-05T05:49:48.775Z,-5.92
2023-02-05T05:52:15.308Z,-5.66
2023-02-05T05:54:41.973Z,-5.65
2023-02-05T05:57:08.757Z,-5.67
2023-02-05T05:59:35.432Z,-5.72
2023-02-05T06:02:03.411Z,-5.67
2023-02-05T06:04:30.416Z,-5.60
2023-02-05T06:06:57.252Z,-5.71
2023-02-05T06:09:24.134Z,-5.49
2023-02-05T06:11:50.939Z,-5.39
2023-02-05T06:14:17.724Z,-5.42
2023-02-05T06:16:44.269Z,-5.47
2023-02-05T06:19:10.869Z,-5.42
2023-02-05T06:21:37.552Z,-5.56
2023-02-05T06:24:04.328Z,-5.43
2023-02-05T06:26:34.128Z,-5.38
2023-02-05T06:29:03.372Z,-5.31
2023-02-05T06:31:33.301Z,-5.44
2023-02-05T06:34:01.326Z,-5.39
2023-02-05T06:36:27.953Z,-5.36
2023-02-05T06:38:54.530Z,-5.35
2023-02-05T06:41:21.092Z,-5.42
2023-02-05T06:43:47.756Z,-5.32
2023-02-05T06:46:14.453Z,-5.32
2023-02-05T06:48:41.059Z,-5.24
2023-02-05T06:51:07.703Z,-5.42
2023-02-05T06:53:34.412Z,-5.29
2023-02-05T06:56:01.128Z,-5.54
2023-02-05T06:58:27.796Z,-5.44
2023-02-05T07:00:54.486Z,-5.62
2023-02-05T07:03:21.242Z,-5.62
2023-02-05T07:05:47.849Z,-5.48
2023-02-05T07:08:14.604Z,-5.25
2023-02-05T07:10:41.358Z,-5.30
2023-02-05T07:13:08.093Z,-5.21
2023-02-05T07:15:38.257Z,-5.29
2023-02-05T07:18:05.157Z,-5.18
2023-02-05T07:20:32.024Z,-5.14
2023-02-05T07:22:58.690Z,-5.05
2023-02-05T07:25:25.411Z,-4.95
2023-02-05T07:27:52.092Z,-4.91
2023-02-05T07:30:18.781Z,-5.00
2023-02-05T07:32:45.534Z,-4.60
2023-02-05T07:35:12.337Z,-4.43
2023-02-05T07:37:39.529Z,-4.25
2023-02-05T07:40:06.808Z,-4.15
2023-02-05T07:42:33.417Z,-4.14
2023-02-05T07:44:59.965Z,-4.31
2023-02-05T07:47:26.603Z,-4.32
2023-02-05T07:49:53.225Z,-4.27
2023-02-05T07:52:19.813Z,-4.49
2023-02-05T07:54:46.424Z,-4.60
2023-02-05T07:57:13.171Z,-4.27
2023-02-05T07:59:39.823Z,-4.47
2023-02-05T08:02:06.409Z,-4.37
2023-02-05T08:04:33.363Z,-4.41
2023-02-05T08:07:00.097Z,-4.42
2023-02-05T08:09:26.746Z,-4.16
2023-02-05T08:11:53.376Z,-4.20
2023-02-05T08:14:20.016Z,-4.07
2023-02-05T08:16:46.720Z,-3.80
2023-02-05T08:19:17.889Z,-3.71
2023-02-05T08:21:45.011Z,-3.55
2023-02-05T08:24:11.651Z,-3.65
2023-02-05T08:26:38.376Z,-3.32
2023-02-05T08:29:05.130Z,-3.26
2023-02-05T08:31:31.725Z,-3.41
2023-02-05T08:34:00.174Z,-3.46
2023-02-05T08:36:26.916Z,-3.64
2023-02-05T08:38:53.592Z,-3.87
2023-02-05T08:41:20.163Z,-3.84
2023-02-05T08:43:49.645Z,-3.92
2023-02-05T08:46:24.586Z,-4.05
2023-02-05T08:48:51.516Z,-3.80
2023-02-05T08:51:19.877Z,-3.73
2023-02-05T08:53:49.867Z,-3.49
2023-02-05T08:56:19.895Z,-3.36
2023-02-05T08:58:46.821Z,-3.53
2023-02-05T09:01:17.007Z,-3.63
2023-02-05T09:03:44.040Z,-3.65
2023-02-05T09:06:13.939Z,-3.57
2023-02-05T09:08:40.819Z,-3.35
2023-02-05T09:11:08.279Z,-3.47
2023-02-05T09:13:35.145Z,-3.64
2023-02-05T09:16:02.082Z,-3.37
2023-02-05T09:18:28.768Z,-3.43
2023-02-05T09:20:55.519Z,-3.45
2023-02-05T09:23:22.495Z,-3.53
2023-02-05T09:25:49.290Z,-3.46
2023-02-05T09:28:16.024Z,-3.45
2023-02-05T09:30:45.250Z,-3.43
2023-02-05T09:33:12.672Z,-3.53
2023-02-05T09:35:39.456Z,-3.90
2023-02-05T09:38:06.235Z,-3.94
2023-02-05T09:40:40.326Z,-3.74
2023-02-05T09:43:32.745Z,-3.59
2023-02-05T09:46:21.560Z,-3.45
2023-02-05T09:49:06.629Z,-3.35
2023-02-05T09:51:42.348Z,-3.34
2023-02-05T09:54:20.043Z,-3.32
2023-02-05T09:56:48.455Z,-3.36
2023-02-05T09:59:19.461Z,-3.31
2023-02-05T10:02:35.297Z,-3.46
2023-02-05T10:05:02.664Z,-3.47
2023-02-05T10:07:55.046Z,-3.23
2023-02-05T10:10:34.776Z,-3.49
2023-02-05T10:13:03.994Z,-3.33
2023-02-05T10:15:47.837Z,-3.44
2023-02-05T10:18:32.904Z,-3.48
2023-02-05T10:21:05.539Z,-3.50
2023-02-05T10:23:58.976Z,-3.54
2023-02-05T10:26:36.751Z,-3.41
2023-02-05T10:29:09.560Z,-3.66
2023-02-05T10:31:53.854Z,-3.61
2023-02-05T10:34:20.517Z,-3.42
2023-02-05T10:36:53.480Z,-3.75
2023-02-05T10:39:25.455Z,-3.69
2023-02-05T10:42:17.315Z,-3.39
2023-02-05T10:44:46.454Z,-3.24
2023-02-05T10:47:22.635Z,-3.02
2023-02-05T10:49:57.040Z,-3.05
2023-02-05T10:52:24.037Z,-2.93
2023-02-05T10:54:51.125Z,-3.14
2023-02-05T10:57:20.636Z,-2.71
2023-02-05T10:59:59.592Z,-2.50
2023-02-05T11:02:33.519Z,-2.54
2023-02-05T11:05:04.229Z,-2.50
2023-02-05T11:07:44.459Z,-2.48
2023-02-05T11:10:23.076Z,-2.39
2023-02-05T11:13:20.432Z,-2.13
2023-02-05T11:15:57.140Z,-2.38
2023-02-05T11:18:30.653Z,-2.38
2023-02-05T11:21:02.547Z,-2.04
2023-02-05T11:23:39.123Z,-1.94
2023-02-05T11:26:23.599Z,-1.89
2023-02-05T11:28:50.703Z,-1.80
2023-02-05T11:31:34.867Z,-1.65
2023-02-05T11:34:07.762Z,-1.26
2023-02-05T11:36:36.853Z,-1.25
2023-02-05T11:39:05.599Z,-1.47
2023-02-05T11:41:48.326Z,-1.71
2023-02-05T11:44:20.412Z,-1.43
2023-02-05T11:46:47.945Z,-1.29
2023-02-05T11:49:22.580Z,-0.97
2023-02-05T11:51:54.880Z,-0.96
2023-02-05T11:54:32.567Z,-0.92
2023-02-05T11:57:29.539Z,-0.84
2023-02-05T12:00:01.192Z,-1.10
2023-02-05T12:02:30.610Z,-0.66
2023-02-05T12:05:21.913Z,-0.58
2023-02-05T12:08:26.147Z,-0.75
2023-02-05T12:11:04.436Z,-1.38
2023-02-05T12:13:49.308Z,-1.48
2023-02-05T12:16:22.385Z,-1.31
2023-02-05T12:19:15.280Z,-1.54
2023-02-05T12:21:52.104Z,-2.67
2023-02-05T12:25:06.565Z,-1.82
2023-02-05T12:28:15.993Z,-1.84
2023-02-05T12:31:16.594Z,-2.05
2023-02-05T12:34:09.993Z,-1.91
2023-02-05T12:36:56.821Z,-2.42
2023-02-05T12:39:44.573Z,-1.72
2023-02-05T12:42:33.150Z,-1.44
2023-02-05T12:45:28.375Z,-1.13
2023-02-05T12:48:14.967Z,-1.62
2023-02-05T12:51:09.558Z,-1.84
2023-02-05T12:54:25.688Z,-1.10
2023-02-05T12:56:58.463Z,-0.61
2023-02-05T12:59:39.284Z,-0.80
2023-02-05T13:02:29.382Z,-1.21
2023-02-05T13:05:14.441Z,-0.66
2023-02-05T13:07:45.682Z,-1.40
2023-02-05T13:10:23.285Z,-1.42
2023-02-05T13:12:54.929Z,-2.08
2023-02-05T13:15:31.697Z,-2.17
2023-02-05T13:18:03.967Z,-2.27
2023-02-05T13:21:00.591Z,-3.05
2023-02-05T13:23:48.691Z,-3.28
2023-02-05T13:26:36.728Z,-3.50
2023-02-05T13:29:10.040Z,-4.28
2023-02-05T13:32:10.690Z,-3.76
2023-02-05T13:34:41.866Z,-3.82
2023-02-05T13:37:19.856Z,-4.15
2023-02-05T13:40:21.932Z,-3.52
2023-02-05T13:43:03.799Z,-3.78
2023-02-05T13:45:52.445Z,-3.76
2023-02-05T13:48:43.582Z,-3.89
2023-02-05T13:51:28.674Z,-4.00
2023-02-05T13:54:18.107Z,-3.85
2023-02-05T13:56:47.670Z,-4.00
2023-02-05T13:59:43.712Z,-3.93
2023-02-05T14:02:40.446Z,-3.96
2023-02-05T14:05:08.738Z,-4.11
2023-02-05T14:07:47.887Z,-4.04
2023-02-05T14:10:28.411Z,-4.08
2023-02-05T14:13:11.966Z,-4.08
2023-02-05T14:15:41.681Z,-4.29
2023-02-05T14:18:12.702Z,-4.46
2023-02-05T14:20:44.684Z,-4.62
2023-02-05T14:23:37.607Z,-5.11
2023-02-05T14:26:04.207Z,-4.24
2023-02-05T14:28:30.759Z,-4.35
2023-02-05T14:31:05.900Z,-4.29
2023-02-05T14:33:40.730Z,-4.51
2023-02-05T14:36:24.282Z,-4.47
2023-02-05T14:38:50.919Z,-4.53
2023-02-05T14:41:27.848Z,-4.48
2023-02-05T14:44:03.663Z,-4.57
2023-02-05T14:46:39.954Z,-4.60
2023-02-05T14:49:20.785Z,-4.84
2023-02-05T14:51:59.395Z,-4.66
2023-02-05T14:54:44.300Z,-4.71
2023-02-05T14:57:35.452Z,-4.81
2023-02-05T15:00:06.032Z,-4.83
2023-02-05T15:03:10.122Z,-4.92
2023-02-05T15:05:39.699Z,-5.03
2023-02-05T15:08:09.019Z,-4.92
2023-02-05T15:11:14.135Z,-4.94
2023-02-05T15:13:41.353Z,-5.27
2023-02-05T15:16:17.278Z,-4.96
2023-02-05T15:18:45.739Z,-5.03
2023-02-05T15:21:26.628Z,-5.20
2023-02-05T15:24:13.110Z,-5.08
2023-02-05T15:26:45.017Z,-5.01
2023-02-05T15:29:20.481Z,-4.97
2023-02-05T15:31:52.229Z,-5.01
2023-02-05T15:34:30.757Z,-4.95
2023-02-05T15:37:09.562Z,-4.94
2023-02-05T15:39:42.800Z,-4.93
2023-02-05T15:42:13.138Z,-4.84
2023-02-05T15:44:40.119Z,-5.08
2023-02-05T15:47:18.688Z,-4.99
2023-02-05T15:49:48.966Z,-5.27
2023-02-05T15:52:23.303Z,-5.09
2023-02-05T15:54:53.082Z,-5.08
2023-02-05T15:57:23.651Z,-5.17
2023-02-05T15:59:52.606Z,-5.37
2023-02-05T16:02:29.889Z,-5.25
2023-02-05T16:05:16.387Z,-5.58
2023-02-05T16:07:44.753Z,-5.10
2023-02-05T16:10:22.210Z,-5.24
2023-02-05T16:13:05.125Z,-5.12
2023-02-05T16:15:38.811Z,-5.21
2023-02-05T16:18:12.361Z,-5.70
2023-02-05T16:20:43.568Z,-5.09
2023-02-05T16:23:22.741Z,-5.06
2023-02-05T16:25:59.945Z,-5.35
2023-02-05T16:28:47.199Z,-5.14
2023-02-05T16:31:20.711Z,-5.29
2023-02-05T16:33:50.556Z,-5.25
2023-02-05T16:36:23.712Z,-5.19
2023-02-05T16:38:53.023Z,-5.08
2023-02-05T16:41:22.652Z,-5.20
2023-02-05T16:43:51.804Z,-5.33
2023-02-05T16:46:29.515Z,-5.20
2023-02-05T16:49:23.861Z,-5.30
2023-02-05T16:51:50.413Z,-5.33
2023-02-05T16:54:29.553Z,-5.84
2023-02-05T16:57:04.663Z,-5.84
2023-02-05T16:59:53.814Z,-5.55
2023-02-05T17:02:35.509Z,-5.38
2023-02-05T17:05:06.476Z,-5.97
2023-02-05T17:07:34.715Z,-5.54
2023-02-05T17:10:21.575Z,-5.31
2023-02-05T17:12:53.003Z,-6.02
2023-02-05T17:15:19.601Z,-5.35
2023-02-05T17:17:55.449Z,-5.35
2023-02-05T17:20:28.083Z,-5.91
2023-02-05T17:23:00.959Z,-5.39
2023-02-05T17:25:29.246Z,-5.75
2023-02-05T17:27:56.521Z,-5.33
2023-02-05T17:30:23.520Z,-5.14
2023-02-05T17:32:51.165Z,-5.06
2023-02-05T17:35:22.154Z,-5.39
2023-02-05T17:37:49.400Z,-5.21
2023-02-05T17:40:16.428Z,-5.02
2023-02-05T17:42:46.061Z,-5.67
2023-02-05T17:45:20.281Z,-5.72
2023-02-05T17:47:47.119Z,-5.38
2023-02-05T17:50:14.561Z,-5.29
2023-02-05T17:52:41.208Z,-5.28
2023-02-05T17:55:11.287Z,-5.32
2023-02-05T17:57:38.118Z,-5.56
2023-02-05T18:00:05.333Z,-5.52
2023-02-05T18:02:32.199Z,-5.49
2023-02-05T18:04:58.932Z,-5.66
2023-02-05T18:07:42.841Z,-5.38
2023-02-05T18:10:13.641Z,-5.52
2023-02-05T18:12:40.285Z,-5.64
2023-02-05T18:15:07.894Z,-5.32
2023-02-05T18:17:34.601Z,-5.41
2023-02-05T18:20:01.408Z,-5.41
2023-02-05T18:22:28.179Z,-5.42
2023-02-05T18:24:54.843Z,-5.49
2023-02-05T18:27:21.555Z,-5.24
2023-02-05T18:29:48.272Z,-5.53
2023-02-05T18:32:15.061Z,-5.48
2023-02-05T18:34:41.740Z,-5.60
2023-02-05T18:37:08.535Z,-5.36
2023-02-05T18:39:35.156Z,-5.42
2023-02-05T18:42:01.772Z,-5.29
2023-02-05T18:44:28.380Z,-5.38
2023-02-05T18:46:55.465Z,-5.37
2023-02-05T18:49:22.342Z,-5.50
2023-02-05T18:51:48.993Z,-5.43
2023-02-05T18:54:15.676Z,-5.42
2023-02-05T18:56:42.443Z,-5.43
2023-02-05T18:59:14.171Z,-5.94
2023-02-05T19:01:41.314Z,-5.79
2023-02-05T19:04:14.500Z,-5.68
2023-02-05T19:06:42.968Z,-5.66
2023-02-05T19:09:10.631Z,-5.70
2023-02-05T19:11:41.059Z,-5.61
2023-02-05T19:14:11.133Z,-5.81
2023-02-05T19:16:39.565Z,-5.70
2023-02-05T19:19:06.609Z,-5.70
2023-02-05T19:21:33.340Z,-6.37
2023-02-05T19:24:05.801Z,-5.52
2023-02-05T19:26:35.143Z,-5.67
2023-02-05T19:29:05.135Z,-5.62
2023-02-05T19:31:34.233Z,-5.66
2023-02-05T19:34:01.609Z,-5.65
2023-02-05T19:36:29.230Z,-5.71
2023-02-05T19:38:55.968Z,-5.90
2023-02-05T19:41:26.377Z,-5.63
2023-02-05T19:43:58.698Z,-5.73
2023-02-05T19:46:28.473Z,-5.50
2023-02-05T19:48:55.993Z,-5.48
2023-02-05T19:51:22.935Z,-5.49
2023-02-05T19:53:49.662Z,-5.62
2023-02-05T19:56:18.950Z,-5.37
2023-02-05T19:58:48.796Z,-5.46
2023-02-05T20:01:19.734Z,-5.38
2023-02-05T20:03:46.820Z,-5.52
2023-02-05T20:06:15.944Z,-5.36
2023-02-05T20:08:44.438Z,-5.50
2023-02-05T20:11:11.775Z,-5.73
2023-02-05T20:13:39.487Z,-5.51
2023-02-05T20:16:10.679Z,-5.81
2023-02-05T20:18:38.579Z,-5.70
2023-02-05T20:21:10.067Z,-5.63
2023-02-05T20:23:37.343Z,-5.71
2023-02-05T20:26:05.478Z,-5.93
2023-02-05T20:28:34.702Z,-5.64
2023-02-05T20:31:20.336Z,-5.60
2023-02-05T20:33:50.000Z,-5.65
2023-02-05T20:36:16.612Z,-5.85
2023-02-05T20:38:43.382Z,-5.62
2023-02-05T20:41:12.494Z,-5.68
2023-02-05T20:43:39.348Z,-5.66
2023-02-05T20:46:07.025Z,-5.77
2023-02-05T20:48:34.380Z,-5.81
2023-02-05T20:51:09.237Z,-5.79
2023-02-05T20:53:36.134Z,-6.18
2023-02-05T20:56:05.584Z,-5.73
2023-02-05T20:58:33.049Z,-5.82
2023-02-05T21:01:07.143Z,-5.80
2023-02-05T21:03:34.576Z,-6.05
2023-02-05T21:06:01.660Z,-5.84
2023-02-05T21:08:28.802Z,-5.78
2023-02-05T21:10:55.571Z,-5.80
2023-02-05T21:13:22.257Z,-5.77
2023-02-05T21:15:58.233Z,-5.79
2023-02-05T21:18:26.460Z,-6.58
2023-02-05T21:20:53.473Z,-6.28
2023-02-05T21:23:20.959Z,-5.86
2023-02-05T21:25:48.108Z,-6.03
2023-02-05T21:28:15.143Z,-5.92
2023-02-05T21:30:43.212Z,-6.02
2023-02-05T21:33:09.911Z,-6.24
2023-02-05T21:35:39.744Z,-6.32
2023-02-05T21:38:06.408Z,-6.37
2023-02-05T21:40:33.874Z,-6.42
2023-02-05T21:43:00.857Z,-6.62
2023-02-05T21:45:27.561Z,-5.95
2023-02-05T21:47:54.211Z,-6.09
2023-02-05T21:50:21.352Z,-5.92
2023-02-05T21:52:48.017Z,-6.10
2023-02-05T21:55:14.705Z,-6.59
2023-02-05T21:57:41.318Z,-6.31
2023-02-05T22:00:08.439Z,-6.10
2023-02-05T22:02:35.093Z,-6.46
2023-02-05T22:05:01.701Z,-6.35
2023-02-05T22:07:28.736Z,-6.44
2023-02-05T22:09:55.529Z,-6.09
2023-02-05T22:12:22.245Z,-6.37
2023-02-05T22:14:49.142Z,-6.24
2023-02-05T22:17:15.935Z,-6.12
2023-02-05T22:19:43.199Z,-6.18
2023-02-05T22:22:09.974Z,-5.87
2023-02-05T22:24:36.653Z,-6.47
2023-02-05T22:27:03.736Z,-6.67
2023-02-05T22:29:30.464Z,-5.92
2023-02-05T22:31:57.267Z,-5.91
2023-02-05T22:34:24.570Z,-6.37
2023-02-05T22:36:51.370Z,-6.40
2023-02-05T22:39:18.069Z,-6.42
2023-02-05T22:41:44.914Z,-6.49
2023-02-05T22:44:12.239Z,-6.48
2023-02-05T22:46:42.580Z,-6.31
2023-02-05T22:49:12.189Z,-6.58
2023-02-05T22:51:40.466Z,-6.59
2023-02-05T22:54:09.260Z,-5.96
2023-02-05T22:56:37.102Z,-6.39
2023-02-05T22:59:04.005Z,-5.93
2023-02-05T23:01:35.414Z,-5.95
2023-02-05T23:04:04.680Z,-6.10
2023-02-05T23:06:36.162Z,-5.98
2023-02-05T23:09:12.520Z,-6.20
2023-02-05T23:11:39.438Z,-6.71
2023-02-05T23:14:07.484Z,-6.47
2023-02-05T23:16:38.537Z,-5.99
2023-02-05T23:19:09.169Z,-5.98
2023-02-05T23:21:37.941Z,-6.27
2023-02-05T23:24:05.320Z,-6.18
2023-02-05T23:26:39.380Z,-6.11
2023-02-05T23:29:07.818Z,-6.07
2023-02-05T23:31:35.976Z,-6.50
2023-02-05T23:34:04.400Z,-5.99
2023-02-05T23:36:31.543Z,-6.31
2023-02-05T23:38:58.532Z,-6.10
2023-02-05T23:41:37.714Z,-6.38
2023-02-05T23:44:22.462Z,-6.11
2023-02-05T23:46:50.427Z,-5.92
2023-02-05T23:49:21.798Z,-5.92
2023-02-05T23:51:49.990Z,-6.12
2023-02-05T23:54:16.729Z,-5.96
2023-02-05T23:56:43.536Z,-5.99
2023-02-05T23:59:12.087Z,-5.92
